Startpagina
METAR-TAF:

METAR-TAF

Vliegvelden :

Hagåtña, Guam, Verenigde Staten

breedte: 13-29N, lengte: 144-48E, hoogte: 91 m

Actueel weer

Dit bericht is 53 minuten geleden gemaakt, om 12:54 UTC
Wind 6 kt uit het oostnoordoosten
Temperatuur 28°C
Vochtigheid 89%
Druk 1014 hPa
Zicht: 14.5 km
Onbewolkt

METAR: PGUM 231254Z 07006KT 9SM CLR 28/26 A2993 RMK AO2 SLP126 T02830256

Tijdstip: 23:47 (13:47 UTC)

Verwachting

Dit bericht is 2 uur en het 13 minuten geleden gemaakt, om 11:34 UTC
Verwachting geldig van 23 om 12 UTC tot 24 om 18 UTC
Wind 5 kt uit het noordoosten
Zicht: 10 km
Weinig wolken op 2500 ft
Verspreide wolken op 5000 ft

TAF: PGUM 231134Z 2312/2418 05005KT P6SM FEW025 SCT050

Waarnemingen en weersverwachtingen van meer dan 4000 vliegvelden (METAR en TAF).

De beschikbare stations zijn de gele en rode punten op de kaart.

Ga met uw muis naar het station om de naam te zien.

Klik dan om waarnemingen en weersverwachtingen te zien.

kaart wijzigen: klik op de groene knoppen met een zwart kruis om in te zoomen, op de groene knop met een streepje om uit te zoomen of op de groene pijlen voor aangrenzende kaarten.


METAR-TAF: